sensor_id;sensor_type;location;lat;lon;timestamp;pressure;altitude;pressure_sealevel;temperature;humidity
11971;BME280;6045;42.682;23.294;2024-03-07T00:01:12;94433.06;;;10.60;87.01
11971;BME280;6045;42.682;23.294;2024-03-07T00:03:39;94442.47;;;10.63;87.11
11971;BME280;6045;42.682;23.294;2024-03-07T00:06:06;94432.47;;;10.70;87.44
11971;BME280;6045;42.682;23.294;2024-03-07T00:08:34;94431.78;;;10.63;87.25
11971;BME280;6045;42.682;23.294;2024-03-07T00:11:01;94427.72;;;10.60;87.94
11971;BME280;6045;42.682;23.294;2024-03-07T00:13:28;94427.25;;;10.63;88.14
11971;BME280;6045;42.682;23.294;2024-03-07T00:15:56;94420.63;;;10.66;88.02
11971;BME280;6045;42.682;23.294;2024-03-07T00:18:24;94416.69;;;10.57;87.61
11971;BME280;6045;42.682;23.294;2024-03-07T00:20:52;94413.78;;;10.58;87.04
11971;BME280;6045;42.682;23.294;2024-03-07T00:23:20;94417.41;;;10.52;87.21
11971;BME280;6045;42.682;23.294;2024-03-07T00:25:47;94414.38;;;10.49;87.37
11971;BME280;6045;42.682;23.294;2024-03-07T00:28:15;94409.16;;;10.30;88.96
11971;BME280;6045;42.682;23.294;2024-03-07T00:30:42;94409.03;;;10.37;89.43
11971;BME280;6045;42.682;23.294;2024-03-07T00:33:11;94405.56;;;10.37;89.10
11971;BME280;6045;42.682;23.294;2024-03-07T00:35:41;94403.81;;;10.42;88.72
11971;BME280;6045;42.682;23.294;2024-03-07T00:38:12;94402.66;;;10.38;88.95
11971;BME280;6045;42.682;23.294;2024-03-07T00:40:39;94417.31;;;10.12;88.94
11971;BME280;6045;42.682;23.294;2024-03-07T00:43:11;94412.44;;;10.21;88.91
11971;BME280;6045;42.682;23.294;2024-03-07T00:45:41;94413.69;;;10.18;88.60
11971;BME280;6045;42.682;23.294;2024-03-07T00:48:08;94409.88;;;10.14;88.53
11971;BME280;6045;42.682;23.294;2024-03-07T00:50:35;94416.44;;;10.00;88.97
11971;BME280;6045;42.682;23.294;2024-03-07T00:53:06;94399.78;;;10.16;88.50
11971;BME280;6045;42.682;23.294;2024-03-07T00:55:33;94401.88;;;10.14;88.67
11971;BME280;6045;42.682;23.294;2024-03-07T00:58:00;94394.97;;;10.07;88.67
11971;BME280;6045;42.682;23.294;2024-03-07T01:00:28;94396.59;;;9.96;89.25
11971;BME280;6045;42.682;23.294;2024-03-07T01:02:55;94385.31;;;9.71;89.53
11971;BME280;6045;42.682;23.294;2024-03-07T01:05:22;94386.59;;;9.80;90.02
11971;BME280;6045;42.682;23.294;2024-03-07T01:07:49;94378.44;;;9.63;90.84
11971;BME280;6045;42.682;23.294;2024-03-07T01:10:18;94383.34;;;9.78;90.30
11971;BME280;6045;42.682;23.294;2024-03-07T01:12:45;94379.41;;;9.92;90.31
11971;BME280;6045;42.682;23.294;2024-03-07T01:15:11;94381.50;;;9.90;90.38
11971;BME280;6045;42.682;23.294;2024-03-07T01:17:40;94379.28;;;9.99;90.11
11971;BME280;6045;42.682;23.294;2024-03-07T01:20:08;94376.16;;;10.02;90.20
11971;BME280;6045;42.682;23.294;2024-03-07T01:22:36;94379.53;;;9.97;90.48
11971;BME280;6045;42.682;23.294;2024-03-07T01:25:03;94378.84;;;9.90;90.50
11971;BME280;6045;42.682;23.294;2024-03-07T01:27:33;94382.44;;;9.84;91.07
11971;BME280;6045;42.682;23.294;2024-03-07T01:30:00;94381.72;;;9.77;90.97
11971;BME280;6045;42.682;23.294;2024-03-07T01:32:28;94373.13;;;9.75;90.79
11971;BME280;6045;42.682;23.294;2024-03-07T01:34:55;94372.91;;;9.77;90.37
11971;BME280;6045;42.682;23.294;2024-03-07T01:37:22;94377.56;;;9.81;90.01
11971;BME280;6045;42.682;23.294;2024-03-07T01:39:49;94366.63;;;9.59;89.96
11971;BME280;6045;42.682;23.294;2024-03-07T01:42:17;94367.31;;;9.67;90.11
11971;BME280;6045;42.682;23.294;2024-03-07T01:44:45;94359.75;;;9.52;90.82
11971;BME280;6045;42.682;23.294;2024-03-07T01:47:12;94362.34;;;9.17;92.82
11971;BME280;6045;42.682;23.294;2024-03-07T01:49:40;94367.81;;;9.22;92.85
11971;BME280;6045;42.682;23.294;2024-03-07T01:52:07;94375.47;;;9.30;92.33
11971;BME280;6045;42.682;23.294;2024-03-07T01:54:35;94383.84;;;9.34;92.53
11971;BME280;6045;42.682;23.294;2024-03-07T01:57:02;94392.97;;;9.26;92.50
11971;BME280;6045;42.682;23.294;2024-03-07T01:59:30;94381.66;;;9.42;92.86
11971;BME280;6045;42.682;23.294;2024-03-07T02:02:00;94384.59;;;9.52;92.63
11971;BME280;6045;42.682;23.294;2024-03-07T02:04:27;94375.69;;;9.58;92.93
11971;BME280;6045;42.682;23.294;2024-03-07T02:06:55;94378.00;;;9.67;92.37
11971;BME280;6045;42.682;23.294;2024-03-07T02:09:22;94382.63;;;9.71;92.15
11971;BME280;6045;42.682;23.294;2024-03-07T02:11:49;94377.44;;;9.76;91.96
11971;BME280;6045;42.682;23.294;2024-03-07T02:14:16;94370.22;;;9.65;92.47
11971;BME280;6045;42.682;23.294;2024-03-07T02:16:43;94372.06;;;9.64;92.92
11971;BME280;6045;42.682;23.294;2024-03-07T02:19:14;94367.78;;;9.75;92.30
11971;BME280;6045;42.682;23.294;2024-03-07T02:21:43;94354.94;;;9.72;91.78
11971;BME280;6045;42.682;23.294;2024-03-07T02:24:10;94347.13;;;9.71;91.32
11971;BME280;6045;42.682;23.294;2024-03-07T02:26:37;94352.38;;;9.66;90.99
11971;BME280;6045;42.682;23.294;2024-03-07T02:29:05;94355.59;;;9.56;91.45
11971;BME280;6045;42.682;23.294;2024-03-07T02:31:32;94358.22;;;9.44;91.81
11971;BME280;6045;42.682;23.294;2024-03-07T02:34:02;94372.06;;;9.53;92.26
11971;BME280;6045;42.682;23.294;2024-03-07T02:36:29;94368.69;;;9.46;92.44
11971;BME280;6045;42.682;23.294;2024-03-07T02:38:58;94374.72;;;9.41;92.35
11971;BME280;6045;42.682;23.294;2024-03-07T02:41:25;94375.41;;;9.37;92.86
11971;BME280;6045;42.682;23.294;2024-03-07T02:43:54;94374.00;;;9.34;93.44
11971;BME280;6045;42.682;23.294;2024-03-07T02:46:21;94381.41;;;9.32;92.96
11971;BME280;6045;42.682;23.294;2024-03-07T02:48:48;94378.91;;;9.19;90.98
11971;BME280;6045;42.682;23.294;2024-03-07T02:51:15;94382.03;;;9.16;90.66
11971;BME280;6045;42.682;23.294;2024-03-07T02:53:42;94370.91;;;9.19;90.17
11971;BME280;6045;42.682;23.294;2024-03-07T02:56:10;94383.91;;;9.16;88.57
11971;BME280;6045;42.682;23.294;2024-03-07T02:58:37;94383.94;;;8.98;88.41
11971;BME280;6045;42.682;23.294;2024-03-07T03:01:04;94383.88;;;9.04;88.85
11971;BME280;6045;42.682;23.294;2024-03-07T03:03:31;94392.06;;;9.03;88.57
11971;BME280;6045;42.682;23.294;2024-03-07T03:05:58;94386.66;;;9.09;88.86
11971;BME280;6045;42.682;23.294;2024-03-07T03:08:26;94385.47;;;9.05;89.19
11971;BME280;6045;42.682;23.294;2024-03-07T03:10:54;94374.91;;;8.99;89.43
11971;BME280;6045;42.682;23.294;2024-03-07T03:13:24;94377.34;;;9.00;89.24
11971;BME280;6045;42.682;23.294;2024-03-07T03:15:53;94378.97;;;9.01;87.47
11971;BME280;6045;42.682;23.294;2024-03-07T03:18:21;94375.06;;;9.04;87.34
11971;BME280;6045;42.682;23.294;2024-03-07T03:20:48;94386.50;;;8.92;88.06
11971;BME280;6045;42.682;23.294;2024-03-07T03:23:15;94392.53;;;9.00;88.59
11971;BME280;6045;42.682;23.294;2024-03-07T03:25:42;94395.06;;;8.94;88.69
11971;BME280;6045;42.682;23.294;2024-03-07T03:28:10;94393.47;;;9.05;89.01
11971;BME280;6045;42.682;23.294;2024-03-07T03:30:40;94385.47;;;9.05;89.13
11971;BME280;6045;42.682;23.294;2024-03-07T03:33:08;94394.06;;;9.07;89.54
11971;BME280;6045;42.682;23.294;2024-03-07T03:35:35;94404.53;;;9.09;90.07
11971;BME280;6045;42.682;23.294;2024-03-07T03:38:04;94414.97;;;8.74;90.36
11971;BME280;6045;42.682;23.294;2024-03-07T03:40:32;94406.13;;;8.62;92.04
11971;BME280;6045;42.682;23.294;2024-03-07T03:43:00;94402.50;;;8.56;92.85
11971;BME280;6045;42.682;23.294;2024-03-07T03:45:28;94393.41;;;8.64;93.33
11971;BME280;6045;42.682;23.294;2024-03-07T03:47:57;94377.25;;;8.77;92.33
11971;BME280;6045;42.682;23.294;2024-03-07T03:50:24;94378.88;;;8.78;91.33
11971;BME280;6045;42.682;23.294;2024-03-07T03:52:55;94374.72;;;8.82;90.91
11971;BME280;6045;42.682;23.294;2024-03-07T03:55:23;94375.44;;;8.89;90.65
11971;BME280;6045;42.682;23.294;2024-03-07T03:57:50;94372.19;;;8.87;90.28
11971;BME280;6045;42.682;23.294;2024-03-07T04:00:17;94375.69;;;8.87;90.15
11971;BME280;6045;42.682;23.294;2024-03-07T04:02:48;94376.94;;;8.85;89.59
11971;BME280;6045;42.682;23.294;2024-03-07T04:05:18;94380.63;;;8.84;88.78
11971;BME280;6045;42.682;23.294;2024-03-07T04:07:45;94380.19;;;8.87;88.67
11971;BME280;6045;42.682;23.294;2024-03-07T04:10:14;94377.69;;;8.92;88.05
11971;BME280;6045;42.682;23.294;2024-03-07T04:12:42;94377.34;;;9.00;88.17
11971;BME280;6045;42.682;23.294;2024-03-07T04:15:10;94385.09;;;8.90;88.19
11971;BME280;6045;42.682;23.294;2024-03-07T04:17:37;94393.53;;;8.87;87.53
11971;BME280;6045;42.682;23.294;2024-03-07T04:20:06;94387.88;;;8.95;86.92
11971;BME280;6045;42.682;23.294;2024-03-07T04:22:37;94395.84;;;8.95;86.95
11971;BME280;6045;42.682;23.294;2024-03-07T04:25:06;94386.84;;;8.96;86.59
11971;BME280;6045;42.682;23.294;2024-03-07T04:27:34;94388.91;;;8.94;86.92
11971;BME280;6045;42.682;23.294;2024-03-07T04:30:02;94389.25;;;8.98;87.39
11971;BME280;6045;42.682;23.294;2024-03-07T04:32:36;94388.97;;;9.06;87.37
11971;BME280;6045;42.682;23.294;2024-03-07T04:35:04;94389.69;;;8.83;88.50
11971;BME280;6045;42.682;23.294;2024-03-07T04:37:37;94388.63;;;8.84;89.52
11971;BME280;6045;42.682;23.294;2024-03-07T04:40:06;94387.88;;;8.95;89.31
11971;BME280;6045;42.682;23.294;2024-03-07T04:42:41;94385.56;;;8.99;88.92
11971;BME280;6045;42.682;23.294;2024-03-07T04:45:09;94385.72;;;9.04;87.99
11971;BME280;6045;42.682;23.294;2024-03-07T04:47:38;94392.22;;;9.08;87.50
11971;BME280;6045;42.682;23.294;2024-03-07T04:50:07;94388.28;;;9.10;86.73
11971;BME280;6045;42.682;23.294;2024-03-07T04:52:37;94384.31;;;9.01;86.72
11971;BME280;6045;42.682;23.294;2024-03-07T04:55:05;94402.13;;;8.53;84.73
11971;BME280;6045;42.682;23.294;2024-03-07T04:57:34;94399.41;;;8.59;85.11
11971;BME280;6045;42.682;23.294;2024-03-07T05:00:01;94403.25;;;8.45;84.63
11971;BME280;6045;42.682;23.294;2024-03-07T05:02:32;94408.03;;;8.37;84.44
11971;BME280;6045;42.682;23.294;2024-03-07T05:04:59;94415.41;;;8.16;83.02
11971;BME280;6045;42.682;23.294;2024-03-07T05:07:26;94416.31;;;7.86;83.14
11971;BME280;6045;42.682;23.294;2024-03-07T05:09:55;94418.44;;;7.77;84.11
11971;BME280;6045;42.682;23.294;2024-03-07T05:12:22;94411.81;;;7.86;85.13
11971;BME280;6045;42.682;23.294;2024-03-07T05:14:48;94405.59;;;7.92;85.79
11971;BME280;6045;42.682;23.294;2024-03-07T05:17:16;94407.66;;;7.90;85.65
11971;BME280;6045;42.682;23.294;2024-03-07T05:19:45;94408.69;;;7.65;85.75
11971;BME280;6045;42.682;23.294;2024-03-07T05:22:14;94405.16;;;7.95;94.86
11971;BME280;6045;42.682;23.294;2024-03-07T05:24:43;94413.75;;;7.97;91.44
11971;BME280;6045;42.682;23.294;2024-03-07T05:27:12;94417.97;;;8.66;98.79
11971;BME280;6045;42.682;23.294;2024-03-07T05:29:39;94422.38;;;8.72;98.30
11971;BME280;6045;42.682;23.294;2024-03-07T05:32:24;94423.88;;;8.68;91.05
11971;BME280;6045;42.682;23.294;2024-03-07T05:34:52;94430.63;;;8.70;88.63
11971;BME280;6045;42.682;23.294;2024-03-07T05:37:20;94428.25;;;8.62;86.70
11971;BME280;6045;42.682;23.294;2024-03-07T05:39:49;94431.81;;;8.56;86.27
11971;BME280;6045;42.682;23.294;2024-03-07T05:42:17;94434.25;;;8.40;86.77
11971;BME280;6045;42.682;23.294;2024-03-07T05:44:44;94423.06;;;8.31;86.56
11971;BME280;6045;42.682;23.294;2024-03-07T05:47:11;94427.94;;;8.34;86.99
11971;BME280;6045;42.682;23.294;2024-03-07T05:49:39;94427.72;;;8.36;86.61
11971;BME280;6045;42.682;23.294;2024-03-07T05:52:06;94431.72;;;8.27;87.46
11971;BME280;6045;42.682;23.294;2024-03-07T05:54:33;94438.53;;;8.41;87.41
11971;BME280;6045;42.682;23.294;2024-03-07T05:56:59;94436.38;;;8.49;86.01
11971;BME280;6045;42.682;23.294;2024-03-07T05:59:28;94438.66;;;8.46;85.51
11971;BME280;6045;42.682;23.294;2024-03-07T06:01:56;94447.13;;;8.43;85.86
11971;BME280;6045;42.682;23.294;2024-03-07T06:04:24;94436.97;;;8.51;85.88
11971;BME280;6045;42.682;23.294;2024-03-07T06:06:50;94442.81;;;8.42;85.25
11971;BME280;6045;42.682;23.294;2024-03-07T06:09:18;94449.31;;;8.46;84.97
11971;BME280;6045;42.682;23.294;2024-03-07T06:11:47;94443.13;;;8.52;84.46
11971;BME280;6045;42.682;23.294;2024-03-07T06:14:15;94443.63;;;8.60;83.90
11971;BME280;6045;42.682;23.294;2024-03-07T06:16:44;94459.47;;;8.55;84.06
11971;BME280;6045;42.682;23.294;2024-03-07T06:19:11;94476.19;;;8.62;83.57
11971;BME280;6045;42.682;23.294;2024-03-07T06:21:39;94471.25;;;8.66;82.20
11971;BME280;6045;42.682;23.294;2024-03-07T06:24:09;94472.50;;;8.63;82.19
11971;BME280;6045;42.682;23.294;2024-03-07T06:26:40;94476.34;;;8.49;83.44
11971;BME280;6045;42.682;23.294;2024-03-07T06:29:15;94471.84;;;8.50;84.05
11971;BME280;6045;42.682;23.294;2024-03-07T06:31:45;94468.19;;;8.44;84.34
11971;BME280;6045;42.682;23.294;2024-03-07T06:34:13;94464.59;;;8.57;84.35
11971;BME280;6045;42.682;23.294;2024-03-07T06:36:40;94458.09;;;8.71;83.50
11971;BME280;6045;42.682;23.294;2024-03-07T06:39:07;94463.25;;;8.84;82.38
11971;BME280;6045;42.682;23.294;2024-03-07T06:41:35;94459.81;;;8.95;81.71
11971;BME280;6045;42.682;23.294;2024-03-07T06:44:03;94463.47;;;9.01;82.95
11971;BME280;6045;42.682;23.294;2024-03-07T06:46:30;94465.09;;;9.02;84.33
11971;BME280;6045;42.682;23.294;2024-03-07T06:48:58;94472.63;;;9.05;84.07
11971;BME280;6045;42.682;23.294;2024-03-07T06:51:25;94480.84;;;9.03;82.29
11971;BME280;6045;42.682;23.294;2024-03-07T06:53:52;94473.31;;;8.82;82.58
11971;BME280;6045;42.682;23.294;2024-03-07T06:56:21;94476.81;;;8.82;83.02
11971;BME280;6045;42.682;23.294;2024-03-07T06:58:49;94479.53;;;8.94;82.78
11971;BME280;6045;42.682;23.294;2024-03-07T07:01:16;94478.13;;;8.91;81.68
11971;BME280;6045;42.682;23.294;2024-03-07T07:03:45;94472.13;;;8.96;81.43
11971;BME280;6045;42.682;23.294;2024-03-07T07:06:14;94467.69;;;9.08;80.70
11971;BME280;6045;42.682;23.294;2024-03-07T07:08:41;94468.63;;;8.95;80.50
11971;BME280;6045;42.682;23.294;2024-03-07T07:11:12;94458.94;;;9.01;80.79
11971;BME280;6045;42.682;23.294;2024-03-07T07:13:39;94460.72;;;9.07;80.37
11971;BME280;6045;42.682;23.294;2024-03-07T07:16:07;94456.78;;;9.10;79.82
11971;BME280;6045;42.682;23.294;2024-03-07T07:18:35;94452.13;;;9.05;80.04
11971;BME280;6045;42.682;23.294;2024-03-07T07:21:02;94462.50;;;9.13;80.45
11971;BME280;6045;42.682;23.294;2024-03-07T07:23:36;94459.34;;;9.16;79.16
11971;BME280;6045;42.682;23.294;2024-03-07T07:26:03;94471.06;;;9.15;79.83
11971;BME280;6045;42.682;23.294;2024-03-07T07:28:31;94454.88;;;9.28;79.44
11971;BME280;6045;42.682;23.294;2024-03-07T07:30:58;94456.34;;;9.42;78.18
11971;BME280;6045;42.682;23.294;2024-03-07T07:33:25;94454.03;;;9.46;78.45
11971;BME280;6045;42.682;23.294;2024-03-07T07:35:52;94455.44;;;9.48;79.68
11971;BME280;6045;42.682;23.294;2024-03-07T07:38:20;94462.88;;;9.46;80.40
11971;BME280;6045;42.682;23.294;2024-03-07T07:40:48;94455.16;;;9.09;79.61
11971;BME280;6045;42.682;23.294;2024-03-07T07:43:16;94446.84;;;9.17;79.63
11971;BME280;6045;42.682;23.294;2024-03-07T07:45:44;94447.13;;;9.27;79.00
11971;BME280;6045;42.682;23.294;2024-03-07T07:48:11;94450.47;;;9.22;79.63
11971;BME280;6045;42.682;23.294;2024-03-07T07:50:38;94452.69;;;9.25;78.92
11971;BME280;6045;42.682;23.294;2024-03-07T07:53:05;94445.41;;;9.32;79.47
11971;BME280;6045;42.682;23.294;2024-03-07T07:55:34;94448.19;;;9.37;78.85
11971;BME280;6045;42.682;23.294;2024-03-07T07:58:03;94452.25;;;9.40;78.46
11971;BME280;6045;42.682;23.294;2024-03-07T08:03:09;94452.00;;;9.30;79.96
11971;BME280;6045;42.682;23.294;2024-03-07T08:05:37;94451.19;;;9.29;80.79
11971;BME280;6045;42.682;23.294;2024-03-07T08:08:06;94454.31;;;9.26;82.24
11971;BME280;6045;42.682;23.294;2024-03-07T08:10:34;94461.63;;;9.31;82.09
11971;BME280;6045;42.682;23.294;2024-03-07T08:13:04;94460.81;;;9.30;81.47
11971;BME280;6045;42.682;23.294;2024-03-07T08:15:32;94464.13;;;9.44;80.69
11971;BME280;6045;42.682;23.294;2024-03-07T08:17:59;94472.16;;;9.55;79.06
11971;BME280;6045;42.682;23.294;2024-03-07T08:20:27;94470.00;;;9.64;79.68
11971;BME280;6045;42.682;23.294;2024-03-07T08:22:55;94480.31;;;9.60;79.78
11971;BME280;6045;42.682;23.294;2024-03-07T08:25:24;94479.53;;;9.72;79.20
11971;BME280;6045;42.682;23.294;2024-03-07T08:27:52;94484.88;;;9.72;79.46
11971;BME280;6045;42.682;23.294;2024-03-07T08:30:22;94488.34;;;9.42;79.59
11971;BME280;6045;42.682;23.294;2024-03-07T08:32:50;94489.97;;;9.43;80.56
11971;BME280;6045;42.682;23.294;2024-03-07T08:35:17;94494.25;;;9.62;80.90
11971;BME280;6045;42.682;23.294;2024-03-07T08:37:45;94497.41;;;9.83;79.52
11971;BME280;6045;42.682;23.294;2024-03-07T08:40:15;94498.09;;;9.78;79.01
11971;BME280;6045;42.682;23.294;2024-03-07T08:42:46;94500.91;;;9.83;79.35
11971;BME280;6045;42.682;23.294;2024-03-07T08:45:14;94507.03;;;9.72;80.18
11971;BME280;6045;42.682;23.294;2024-03-07T08:47:46;94506.44;;;9.70;79.03
11971;BME280;6045;42.682;23.294;2024-03-07T08:50:14;94510.59;;;9.66;79.23
11971;BME280;6045;42.682;23.294;2024-03-07T08:52:43;94515.38;;;9.76;79.46
11971;BME280;6045;42.682;23.294;2024-03-07T08:55:12;94513.25;;;9.96;79.35
11971;BME280;6045;42.682;23.294;2024-03-07T08:57:41;94514.88;;;9.97;79.28
11971;BME280;6045;42.682;23.294;2024-03-07T09:00:10;94515.63;;;9.74;78.79
11971;BME280;6045;42.682;23.294;2024-03-07T09:02:38;94518.91;;;9.88;78.60
11971;BME280;6045;42.682;23.294;2024-03-07T09:05:07;94525.16;;;9.82;76.83
11971;BME280;6045;42.682;23.294;2024-03-07T09:07:35;94524.06;;;9.71;77.97
11971;BME280;6045;42.682;23.294;2024-03-07T09:10:03;94522.38;;;9.77;78.37
11971;BME280;6045;42.682;23.294;2024-03-07T09:12:30;94518.31;;;9.86;77.98
11971;BME280;6045;42.682;23.294;2024-03-07T09:14:57;94520.00;;;9.69;78.07
11971;BME280;6045;42.682;23.294;2024-03-07T09:17:24;94522.50;;;9.82;77.93
11971;BME280;6045;42.682;23.294;2024-03-07T09:19:52;94524.31;;;10.11;77.46
11971;BME280;6045;42.682;23.294;2024-03-07T09:22:20;94522.84;;;10.15;78.03
11971;BME280;6045;42.682;23.294;2024-03-07T09:24:47;94524.91;;;10.13;78.70
11971;BME280;6045;42.682;23.294;2024-03-07T09:27:14;94529.84;;;10.39;77.75
11971;BME280;6045;42.682;23.294;2024-03-07T09:29:45;94527.41;;;10.49;75.26
11971;BME280;6045;42.682;23.294;2024-03-07T09:32:12;94521.63;;;10.52;74.60
11971;BME280;6045;42.682;23.294;2024-03-07T09:34:39;94521.38;;;10.54;75.58
11971;BME280;6045;42.682;23.294;2024-03-07T09:37:06;94524.41;;;10.57;74.61
11971;BME280;6045;42.682;23.294;2024-03-07T09:39:35;94524.41;;;10.69;73.99
11971;BME280;6045;42.682;23.294;2024-03-07T09:42:03;94525.31;;;10.74;74.82
11971;BME280;6045;42.682;23.294;2024-03-07T09:44:34;94524.53;;;10.85;73.96
11971;BME280;6045;42.682;23.294;2024-03-07T09:47:03;94533.91;;;10.65;75.41
11971;BME280;6045;42.682;23.294;2024-03-07T09:49:30;94534.63;;;10.72;75.64
11971;BME280;6045;42.682;23.294;2024-03-07T09:52:04;94534.41;;;10.50;76.32
11971;BME280;6045;42.682;23.294;2024-03-07T09:54:35;94530.34;;;10.48;76.22
11971;BME280;6045;42.682;23.294;2024-03-07T09:57:02;94520.22;;;10.61;76.20
11971;BME280;6045;42.682;23.294;2024-03-07T09:59:32;94518.94;;;10.64;77.24
11971;BME280;6045;42.682;23.294;2024-03-07T10:02:03;94518.25;;;10.80;76.30
11971;BME280;6045;42.682;23.294;2024-03-07T10:04:39;94515.78;;;11.02;75.79
11971;BME280;6045;42.682;23.294;2024-03-07T10:07:11;94508.91;;;11.06;74.96
11971;BME280;6045;42.682;23.294;2024-03-07T10:09:40;94511.44;;;11.12;74.36
11971;BME280;6045;42.682;23.294;2024-03-07T10:12:08;94506.75;;;11.31;74.11
11971;BME280;6045;42.682;23.294;2024-03-07T10:14:38;94500.03;;;11.17;74.93
11971;BME280;6045;42.682;23.294;2024-03-07T10:17:05;94499.56;;;11.20;73.80
11971;BME280;6045;42.682;23.294;2024-03-07T10:19:32;94495.00;;;11.32;73.61
11971;BME280;6045;42.682;23.294;2024-03-07T10:21:59;94502.78;;;11.33;73.37
11971;BME280;6045;42.682;23.294;2024-03-07T10:24:27;94500.38;;;11.32;73.80
11971;BME280;6045;42.682;23.294;2024-03-07T10:26:56;94507.34;;;11.21;75.44
11971;BME280;6045;42.682;23.294;2024-03-07T10:29:23;94496.44;;;11.23;72.88
11971;BME280;6045;42.682;23.294;2024-03-07T10:31:50;94493.88;;;11.28;72.33
11971;BME280;6045;42.682;23.294;2024-03-07T10:34:18;94493.38;;;11.31;72.35
11971;BME280;6045;42.682;23.294;2024-03-07T10:36:46;94485.81;;;11.39;72.77
11971;BME280;6045;42.682;23.294;2024-03-07T10:39:13;94494.44;;;11.30;74.70
11971;BME280;6045;42.682;23.294;2024-03-07T10:41:44;94482.72;;;11.47;71.54
11971;BME280;6045;42.682;23.294;2024-03-07T10:44:18;94493.38;;;11.31;72.47
11971;BME280;6045;42.682;23.294;2024-03-07T10:46:52;94490.53;;;11.09;71.17
11971;BME280;6045;42.682;23.294;2024-03-07T10:49:20;94485.25;;;10.63;72.87
11971;BME280;6045;42.682;23.294;2024-03-07T10:51:58;94487.34;;;10.61;73.28
11971;BME280;6045;42.682;23.294;2024-03-07T10:54:36;94477.31;;;10.79;75.07
11971;BME280;6045;42.682;23.294;2024-03-07T10:57:16;94481.16;;;10.83;77.57
11971;BME280;6045;42.682;23.294;2024-03-07T10:59:56;94482.50;;;10.97;75.68
11971;BME280;6045;42.682;23.294;2024-03-07T11:02:30;94482.63;;;11.02;73.62
11971;BME280;6045;42.682;23.294;2024-03-07T11:04:59;94478.53;;;11.12;72.37
11971;BME280;6045;42.682;23.294;2024-03-07T11:07:27;94480.75;;;11.15;71.30
11971;BME280;6045;42.682;23.294;2024-03-07T11:09:55;94470.44;;;11.07;73.21
11971;BME280;6045;42.682;23.294;2024-03-07T11:12:23;94465.66;;;11.09;73.15
11971;BME280;6045;42.682;23.294;2024-03-07T11:14:55;94469.06;;;10.69;71.41
11971;BME280;6045;42.682;23.294;2024-03-07T11:17:23;94475.03;;;10.71;71.54
11971;BME280;6045;42.682;23.294;2024-03-07T11:19:50;94468.75;;;10.43;72.55
11971;BME280;6045;42.682;23.294;2024-03-07T11:22:30;94469.00;;;10.53;72.12
11971;BME280;6045;42.682;23.294;2024-03-07T11:25:01;94479.56;;;10.48;72.71
11971;BME280;6045;42.682;23.294;2024-03-07T11:27:32;94469.31;;;10.21;73.24
11971;BME280;6045;42.682;23.294;2024-03-07T11:30:06;94468.63;;;10.26;74.09
11971;BME280;6045;42.682;23.294;2024-03-07T11:32:35;94460.94;;;10.18;74.57
11971;BME280;6045;42.682;23.294;2024-03-07T11:35:04;94461.53;;;10.20;74.99
11971;BME280;6045;42.682;23.294;2024-03-07T11:37:40;94469.28;;;10.10;74.78
11971;BME280;6045;42.682;23.294;2024-03-07T11:40:10;94461.16;;;10.05;75.24
11971;BME280;6045;42.682;23.294;2024-03-07T11:42:44;94449.75;;;9.98;75.78
11971;BME280;6045;42.682;23.294;2024-03-07T11:45:15;94460.19;;;9.88;76.53
11971;BME280;6045;42.682;23.294;2024-03-07T11:47:51;94458.09;;;9.90;76.49
11971;BME280;6045;42.682;23.294;2024-03-07T11:50:23;94451.72;;;9.91;76.68
11971;BME280;6045;42.682;23.294;2024-03-07T11:52:51;94454.03;;;9.87;76.03
11971;BME280;6045;42.682;23.294;2024-03-07T11:55:20;94454.38;;;9.79;76.89
11971;BME280;6045;42.682;23.294;2024-03-07T11:57:47;94459.47;;;9.81;76.27
11971;BME280;6045;42.682;23.294;2024-03-07T12:00:18;94448.56;;;9.82;76.24
11971;BME280;6045;42.682;23.294;2024-03-07T12:02:45;94445.09;;;9.82;75.93
11971;BME280;6045;42.682;23.294;2024-03-07T12:05:14;94459.72;;;9.91;75.46
11971;BME280;6045;42.682;23.294;2024-03-07T12:07:42;94450.78;;;9.97;76.14
11971;BME280;6045;42.682;23.294;2024-03-07T12:10:10;94453.88;;;10.12;75.85
11971;BME280;6045;42.682;23.294;2024-03-07T12:12:39;94448.97;;;10.09;75.13
11971;BME280;6045;42.682;23.294;2024-03-07T12:15:08;94447.25;;;10.14;74.57
11971;BME280;6045;42.682;23.294;2024-03-07T12:17:45;94452.16;;;10.29;74.07
11971;BME280;6045;42.682;23.294;2024-03-07T12:20:15;94448.41;;;10.30;74.34
11971;BME280;6045;42.682;23.294;2024-03-07T12:22:56;94449.47;;;10.29;75.18
11971;BME280;6045;42.682;23.294;2024-03-07T12:25:23;94446.44;;;10.37;76.51
11971;BME280;6045;42.682;23.294;2024-03-07T12:28:03;94450.06;;;10.31;75.98
11971;BME280;6045;42.682;23.294;2024-03-07T12:30:35;94455.84;;;10.28;75.33
11971;BME280;6045;42.682;23.294;2024-03-07T12:33:06;94454.13;;;10.22;74.94
11971;BME280;6045;42.682;23.294;2024-03-07T12:35:34;94453.19;;;10.28;74.46
11971;BME280;6045;42.682;23.294;2024-03-07T12:38:02;94445.88;;;10.35;74.63
11971;BME280;6045;42.682;23.294;2024-03-07T12:40:29;94441.47;;;10.29;75.31
11971;BME280;6045;42.682;23.294;2024-03-07T12:42:59;94437.03;;;10.35;75.00
11971;BME280;6045;42.682;23.294;2024-03-07T12:45:28;94441.91;;;10.38;76.21
11971;BME280;6045;42.682;23.294;2024-03-07T12:47:59;94435.06;;;10.42;75.59
11971;BME280;6045;42.682;23.294;2024-03-07T12:50:31;94428.22;;;10.46;75.86
11971;BME280;6045;42.682;23.294;2024-03-07T12:53:01;94436.31;;;10.62;75.72
11971;BME280;6045;42.682;23.294;2024-03-07T12:55:31;94437.28;;;10.45;74.28
11971;BME280;6045;42.682;23.294;2024-03-07T12:57:58;94441.91;;;10.49;74.85
11971;BME280;6045;42.682;23.294;2024-03-07T13:00:26;94432.75;;;10.45;74.24
11971;BME280;6045;42.682;23.294;2024-03-07T13:02:55;94438.78;;;10.41;74.70
11971;BME280;6045;42.682;23.294;2024-03-07T13:05:23;94439.72;;;10.35;75.64
11971;BME280;6045;42.682;23.294;2024-03-07T13:07:52;94437.03;;;10.23;76.55
11971;BME280;6045;42.682;23.294;2024-03-07T13:10:20;94438.19;;;10.27;75.43
11971;BME280;6045;42.682;23.294;2024-03-07T13:12:47;94442.88;;;10.32;74.80
11971;BME280;6045;42.682;23.294;2024-03-07T13:15:14;94439.50;;;10.36;74.04
11971;BME280;6045;42.682;23.294;2024-03-07T13:17:42;94441.34;;;10.47;74.17